sensor_id;sensor_type;location;lat;lon;timestamp;P1;durP1;ratioP1;P2;durP2;ratioP2
7316;SDS011;3699;51.462;6.696;2022-12-04T00:01:51;41.83;;;20.07;;
7316;SDS011;3699;51.462;6.696;2022-12-04T00:04:18;44.13;;;21.00;;
7316;SDS011;3699;51.462;6.696;2022-12-04T00:06:44;53.37;;;21.60;;
7316;SDS011;3699;51.462;6.696;2022-12-04T00:09:11;50.27;;;21.57;;
7316;SDS011;3699;51.462;6.696;2022-12-04T00:11:39;45.17;;;21.53;;
7316;SDS011;3699;51.462;6.696;2022-12-04T00:14:06;47.40;;;20.10;;
7316;SDS011;3699;51.462;6.696;2022-12-04T00:16:33;48.43;;;21.90;;
7316;SDS011;3699;51.462;6.696;2022-12-04T00:19:00;46.77;;;21.33;;
7316;SDS011;3699;51.462;6.696;2022-12-04T00:21:26;48.70;;;21.97;;
7316;SDS011;3699;51.462;6.696;2022-12-04T00:23:53;51.50;;;23.47;;
7316;SDS011;3699;51.462;6.696;2022-12-04T00:26:21;51.37;;;23.00;;
7316;SDS011;3699;51.462;6.696;2022-12-04T00:28:51;48.60;;;21.57;;
7316;SDS011;3699;51.462;6.696;2022-12-04T00:31:18;50.03;;;21.63;;
7316;SDS011;3699;51.462;6.696;2022-12-04T00:33:46;50.60;;;21.63;;
7316;SDS011;3699;51.462;6.696;2022-12-04T00:36:14;45.37;;;21.20;;
7316;SDS011;3699;51.462;6.696;2022-12-04T00:38:42;50.40;;;21.80;;
7316;SDS011;3699;51.462;6.696;2022-12-04T00:41:10;48.83;;;20.87;;
7316;SDS011;3699;51.462;6.696;2022-12-04T00:43:38;45.43;;;19.57;;
7316;SDS011;3699;51.462;6.696;2022-12-04T00:46:06;48.10;;;21.93;;
7316;SDS011;3699;51.462;6.696;2022-12-04T00:48:34;45.00;;;21.53;;
7316;SDS011;3699;51.462;6.696;2022-12-04T00:51:01;42.30;;;20.07;;
7316;SDS011;3699;51.462;6.696;2022-12-04T00:53:29;50.67;;;22.27;;
7316;SDS011;3699;51.462;6.696;2022-12-04T00:55:56;45.80;;;21.53;;
7316;SDS011;3699;51.462;6.696;2022-12-04T00:58:23;48.03;;;21.63;;
7316;SDS011;3699;51.462;6.696;2022-12-04T01:00:50;46.90;;;21.37;;
7316;SDS011;3699;51.462;6.696;2022-12-04T01:03:28;49.10;;;21.00;;
7316;SDS011;3699;51.462;6.696;2022-12-04T01:05:55;46.37;;;22.17;;
7316;SDS011;3699;51.462;6.696;2022-12-04T01:08:21;46.67;;;21.20;;
7316;SDS011;3699;51.462;6.696;2022-12-04T01:10:48;45.47;;;20.87;;
7316;SDS011;3699;51.462;6.696;2022-12-04T01:13:15;51.63;;;21.97;;
7316;SDS011;3699;51.462;6.696;2022-12-04T01:15:42;46.50;;;20.77;;
7316;SDS011;3699;51.462;6.696;2022-12-04T01:18:08;48.43;;;21.93;;
7316;SDS011;3699;51.462;6.696;2022-12-04T01:20:37;54.33;;;21.17;;
7316;SDS011;3699;51.462;6.696;2022-12-04T01:23:04;45.67;;;21.97;;
7316;SDS011;3699;51.462;6.696;2022-12-04T01:25:31;48.00;;;20.43;;
7316;SDS011;3699;51.462;6.696;2022-12-04T01:27:58;47.00;;;21.70;;
7316;SDS011;3699;51.462;6.696;2022-12-04T01:30:24;46.47;;;20.77;;
7316;SDS011;3699;51.462;6.696;2022-12-04T01:32:51;51.80;;;22.93;;
7316;SDS011;3699;51.462;6.696;2022-12-04T01:35:18;48.57;;;22.07;;
7316;SDS011;3699;51.462;6.696;2022-12-04T01:37:46;50.47;;;23.30;;
7316;SDS011;3699;51.462;6.696;2022-12-04T01:40:13;48.77;;;22.30;;
7316;SDS011;3699;51.462;6.696;2022-12-04T01:42:41;48.10;;;21.67;;
7316;SDS011;3699;51.462;6.696;2022-12-04T01:48:08;46.50;;;21.33;;
7316;SDS011;3699;51.462;6.696;2022-12-04T01:50:41;48.77;;;22.13;;
7316;SDS011;3699;51.462;6.696;2022-12-04T01:53:11;50.47;;;21.73;;
7316;SDS011;3699;51.462;6.696;2022-12-04T01:55:39;51.57;;;22.37;;
7316;SDS011;3699;51.462;6.696;2022-12-04T01:58:06;51.67;;;22.97;;
7316;SDS011;3699;51.462;6.696;2022-12-04T02:00:34;48.13;;;22.50;;
7316;SDS011;3699;51.462;6.696;2022-12-04T02:03:01;51.40;;;22.87;;
7316;SDS011;3699;51.462;6.696;2022-12-04T02:05:28;52.37;;;22.53;;
7316;SDS011;3699;51.462;6.696;2022-12-04T02:07:55;47.73;;;21.50;;
7316;SDS011;3699;51.462;6.696;2022-12-04T02:10:28;53.40;;;23.60;;
7316;SDS011;3699;51.462;6.696;2022-12-04T02:13:01;51.50;;;22.53;;
7316;SDS011;3699;51.462;6.696;2022-12-04T02:15:37;47.10;;;22.07;;
7316;SDS011;3699;51.462;6.696;2022-12-04T02:18:11;49.07;;;23.43;;
7316;SDS011;3699;51.462;6.696;2022-12-04T02:20:45;47.83;;;22.40;;
7316;SDS011;3699;51.462;6.696;2022-12-04T02:26:22;48.73;;;21.27;;
7316;SDS011;3699;51.462;6.696;2022-12-04T02:29:01;47.40;;;20.90;;
7316;SDS011;3699;51.462;6.696;2022-12-04T02:31:33;49.03;;;22.63;;
7316;SDS011;3699;51.462;6.696;2022-12-04T02:34:04;50.40;;;22.97;;
7316;SDS011;3699;51.462;6.696;2022-12-04T02:36:35;50.03;;;20.87;;
7316;SDS011;3699;51.462;6.696;2022-12-04T02:39:11;47.43;;;21.30;;
7316;SDS011;3699;51.462;6.696;2022-12-04T02:41:45;46.90;;;21.80;;
7316;SDS011;3699;51.462;6.696;2022-12-04T02:44:20;48.67;;;21.73;;
7316;SDS011;3699;51.462;6.696;2022-12-04T02:46:50;50.27;;;23.53;;
7316;SDS011;3699;51.462;6.696;2022-12-04T02:49:21;50.23;;;23.93;;
7316;SDS011;3699;51.462;6.696;2022-12-04T02:51:53;47.30;;;21.47;;
7316;SDS011;3699;51.462;6.696;2022-12-04T02:54:24;51.80;;;22.97;;
7316;SDS011;3699;51.462;6.696;2022-12-04T02:56:53;51.10;;;22.30;;
7316;SDS011;3699;51.462;6.696;2022-12-04T02:59:23;49.90;;;23.13;;
7316;SDS011;3699;51.462;6.696;2022-12-04T03:01:56;49.93;;;22.47;;
7316;SDS011;3699;51.462;6.696;2022-12-04T03:04:27;54.50;;;23.37;;
7316;SDS011;3699;51.462;6.696;2022-12-04T03:06:56;60.80;;;25.43;;
7316;SDS011;3699;51.462;6.696;2022-12-04T03:09:29;48.77;;;23.23;;
7316;SDS011;3699;51.462;6.696;2022-12-04T03:12:03;47.43;;;21.47;;
7316;SDS011;3699;51.462;6.696;2022-12-04T03:14:35;51.70;;;23.63;;
7316;SDS011;3699;51.462;6.696;2022-12-04T03:17:09;48.93;;;23.27;;
7316;SDS011;3699;51.462;6.696;2022-12-04T03:19:40;51.73;;;23.83;;
7316;SDS011;3699;51.462;6.696;2022-12-04T03:22:11;46.40;;;20.93;;
7316;SDS011;3699;51.462;6.696;2022-12-04T03:24:41;49.17;;;21.83;;
7316;SDS011;3699;51.462;6.696;2022-12-04T03:27:12;51.13;;;23.50;;
7316;SDS011;3699;51.462;6.696;2022-12-04T03:29:45;44.80;;;21.37;;
7316;SDS011;3699;51.462;6.696;2022-12-04T03:32:18;48.27;;;22.17;;
7316;SDS011;3699;51.462;6.696;2022-12-04T03:34:53;52.17;;;21.77;;
7316;SDS011;3699;51.462;6.696;2022-12-04T03:37:23;52.63;;;23.30;;
7316;SDS011;3699;51.462;6.696;2022-12-04T03:39:57;47.03;;;20.90;;
7316;SDS011;3699;51.462;6.696;2022-12-04T03:42:30;49.37;;;21.40;;
7316;SDS011;3699;51.462;6.696;2022-12-04T03:45:06;42.37;;;20.07;;
7316;SDS011;3699;51.462;6.696;2022-12-04T03:47:37;46.07;;;22.27;;
7316;SDS011;3699;51.462;6.696;2022-12-04T03:50:08;47.70;;;21.37;;
7316;SDS011;3699;51.462;6.696;2022-12-04T03:52:42;45.20;;;20.87;;
7316;SDS011;3699;51.462;6.696;2022-12-04T03:55:17;45.63;;;21.23;;
7316;SDS011;3699;51.462;6.696;2022-12-04T03:57:49;43.90;;;20.23;;
7316;SDS011;3699;51.462;6.696;2022-12-04T04:00:20;49.07;;;21.83;;
7316;SDS011;3699;51.462;6.696;2022-12-04T04:02:48;43.43;;;20.67;;
7316;SDS011;3699;51.462;6.696;2022-12-04T04:05:20;42.37;;;20.40;;
7316;SDS011;3699;51.462;6.696;2022-12-04T04:07:49;48.00;;;19.77;;
7316;SDS011;3699;51.462;6.696;2022-12-04T04:10:21;41.03;;;18.97;;
7316;SDS011;3699;51.462;6.696;2022-12-04T04:12:53;44.47;;;20.83;;
7316;SDS011;3699;51.462;6.696;2022-12-04T04:15:42;43.37;;;19.37;;
7316;SDS011;3699;51.462;6.696;2022-12-04T04:18:30;38.97;;;19.37;;
7316;SDS011;3699;51.462;6.696;2022-12-04T04:21:15;38.53;;;18.70;;
7316;SDS011;3699;51.462;6.696;2022-12-04T04:24:02;42.13;;;19.17;;
7316;SDS011;3699;51.462;6.696;2022-12-04T04:26:41;40.37;;;18.77;;
7316;SDS011;3699;51.462;6.696;2022-12-04T04:29:10;39.97;;;18.07;;
7316;SDS011;3699;51.462;6.696;2022-12-04T04:31:40;34.67;;;17.40;;
7316;SDS011;3699;51.462;6.696;2022-12-04T04:34:11;39.13;;;17.40;;
7316;SDS011;3699;51.462;6.696;2022-12-04T04:36:45;33.97;;;16.67;;
7316;SDS011;3699;51.462;6.696;2022-12-04T04:39:22;35.20;;;17.40;;
7316;SDS011;3699;51.462;6.696;2022-12-04T04:41:56;41.13;;;19.57;;
7316;SDS011;3699;51.462;6.696;2022-12-04T04:44:28;40.27;;;18.60;;
7316;SDS011;3699;51.462;6.696;2022-12-04T04:47:05;37.20;;;17.90;;
7316;SDS011;3699;51.462;6.696;2022-12-04T04:49:36;34.90;;;17.63;;
7316;SDS011;3699;51.462;6.696;2022-12-04T04:52:07;35.50;;;17.17;;
7316;SDS011;3699;51.462;6.696;2022-12-04T04:54:34;33.20;;;15.57;;
7316;SDS011;3699;51.462;6.696;2022-12-04T04:57:02;37.03;;;17.10;;
7316;SDS011;3699;51.462;6.696;2022-12-04T04:59:29;40.43;;;16.73;;
7316;SDS011;3699;51.462;6.696;2022-12-04T05:01:55;37.53;;;16.83;;
7316;SDS011;3699;51.462;6.696;2022-12-04T05:04:23;30.97;;;14.73;;
7316;SDS011;3699;51.462;6.696;2022-12-04T05:06:50;33.97;;;15.53;;
7316;SDS011;3699;51.462;6.696;2022-12-04T05:09:17;32.97;;;15.67;;
7316;SDS011;3699;51.462;6.696;2022-12-04T05:11:43;32.50;;;15.83;;
7316;SDS011;3699;51.462;6.696;2022-12-04T05:14:10;30.47;;;14.70;;
7316;SDS011;3699;51.462;6.696;2022-12-04T05:16:37;31.83;;;14.90;;
7316;SDS011;3699;51.462;6.696;2022-12-04T05:19:05;30.90;;;14.67;;
7316;SDS011;3699;51.462;6.696;2022-12-04T05:21:50;28.53;;;14.70;;
7316;SDS011;3699;51.462;6.696;2022-12-04T05:24:17;30.67;;;13.80;;
7316;SDS011;3699;51.462;6.696;2022-12-04T05:26:43;29.83;;;14.70;;
7316;SDS011;3699;51.462;6.696;2022-12-04T05:29:10;32.67;;;14.90;;
7316;SDS011;3699;51.462;6.696;2022-12-04T05:31:37;30.13;;;15.23;;
7316;SDS011;3699;51.462;6.696;2022-12-04T05:34:04;28.00;;;14.37;;
7316;SDS011;3699;51.462;6.696;2022-12-04T05:36:30;27.03;;;13.57;;
7316;SDS011;3699;51.462;6.696;2022-12-04T05:38:58;27.47;;;13.27;;
7316;SDS011;3699;51.462;6.696;2022-12-04T05:41:25;33.70;;;15.03;;
7316;SDS011;3699;51.462;6.696;2022-12-04T05:43:52;28.80;;;13.80;;
7316;SDS011;3699;51.462;6.696;2022-12-04T05:46:18;26.70;;;14.03;;
7316;SDS011;3699;51.462;6.696;2022-12-04T05:48:45;30.33;;;14.50;;
7316;SDS011;3699;51.462;6.696;2022-12-04T05:51:12;30.60;;;14.27;;
7316;SDS011;3699;51.462;6.696;2022-12-04T05:53:38;30.40;;;14.93;;
7316;SDS011;3699;51.462;6.696;2022-12-04T05:56:07;29.90;;;14.93;;
7316;SDS011;3699;51.462;6.696;2022-12-04T05:58:35;27.37;;;14.47;;
7316;SDS011;3699;51.462;6.696;2022-12-04T06:01:06;26.47;;;13.73;;
7316;SDS011;3699;51.462;6.696;2022-12-04T06:03:34;28.57;;;13.53;;
7316;SDS011;3699;51.462;6.696;2022-12-04T06:06:01;29.33;;;14.70;;
7316;SDS011;3699;51.462;6.696;2022-12-04T06:08:28;27.40;;;14.43;;
7316;SDS011;3699;51.462;6.696;2022-12-04T06:10:55;30.63;;;14.67;;
7316;SDS011;3699;51.462;6.696;2022-12-04T06:13:23;32.10;;;14.47;;
7316;SDS011;3699;51.462;6.696;2022-12-04T06:15:50;31.60;;;14.60;;
7316;SDS011;3699;51.462;6.696;2022-12-04T06:18:16;27.83;;;13.40;;
7316;SDS011;3699;51.462;6.696;2022-12-04T06:20:43;29.83;;;14.70;;
7316;SDS011;3699;51.462;6.696;2022-12-04T06:23:10;27.10;;;13.33;;
7316;SDS011;3699;51.462;6.696;2022-12-04T06:25:37;30.47;;;14.53;;
7316;SDS011;3699;51.462;6.696;2022-12-04T06:28:03;29.63;;;14.23;;
7316;SDS011;3699;51.462;6.696;2022-12-04T06:30:33;32.77;;;14.83;;
7316;SDS011;3699;51.462;6.696;2022-12-04T06:33:00;28.80;;;13.87;;
7316;SDS011;3699;51.462;6.696;2022-12-04T06:35:26;30.77;;;15.03;;
7316;SDS011;3699;51.462;6.696;2022-12-04T06:37:53;36.50;;;16.53;;
7316;SDS011;3699;51.462;6.696;2022-12-04T06:40:20;31.33;;;15.17;;
7316;SDS011;3699;51.462;6.696;2022-12-04T06:42:46;27.97;;;15.67;;
7316;SDS011;3699;51.462;6.696;2022-12-04T06:45:13;34.20;;;17.57;;
7316;SDS011;3699;51.462;6.696;2022-12-04T06:47:41;32.30;;;17.37;;
7316;SDS011;3699;51.462;6.696;2022-12-04T06:50:08;34.73;;;17.23;;
7316;SDS011;3699;51.462;6.696;2022-12-04T06:52:35;32.87;;;17.73;;
7316;SDS011;3699;51.462;6.696;2022-12-04T06:55:03;34.87;;;16.80;;
7316;SDS011;3699;51.462;6.696;2022-12-04T06:57:30;35.37;;;18.40;;
7316;SDS011;3699;51.462;6.696;2022-12-04T06:59:57;32.00;;;16.67;;
7316;SDS011;3699;51.462;6.696;2022-12-04T07:02:23;33.67;;;16.87;;
7316;SDS011;3699;51.462;6.696;2022-12-04T07:04:54;33.70;;;16.80;;
7316;SDS011;3699;51.462;6.696;2022-12-04T07:07:21;32.67;;;16.70;;
7316;SDS011;3699;51.462;6.696;2022-12-04T07:09:48;34.70;;;16.93;;
7316;SDS011;3699;51.462;6.696;2022-12-04T07:12:14;34.70;;;17.33;;
7316;SDS011;3699;51.462;6.696;2022-12-04T07:14:41;30.53;;;16.13;;
7316;SDS011;3699;51.462;6.696;2022-12-04T07:17:08;30.37;;;15.87;;
7316;SDS011;3699;51.462;6.696;2022-12-04T07:19:35;30.73;;;16.87;;
7316;SDS011;3699;51.462;6.696;2022-12-04T07:22:03;30.17;;;16.60;;
7316;SDS011;3699;51.462;6.696;2022-12-04T07:24:30;34.17;;;17.53;;
7316;SDS011;3699;51.462;6.696;2022-12-04T07:26:57;27.17;;;15.17;;
7316;SDS011;3699;51.462;6.696;2022-12-04T07:29:24;27.17;;;15.30;;
7316;SDS011;3699;51.462;6.696;2022-12-04T07:31:50;27.43;;;15.00;;
7316;SDS011;3699;51.462;6.696;2022-12-04T07:34:17;27.97;;;14.70;;
7316;SDS011;3699;51.462;6.696;2022-12-04T07:36:44;29.13;;;16.10;;
7316;SDS011;3699;51.462;6.696;2022-12-04T07:39:12;33.43;;;17.23;;
7316;SDS011;3699;51.462;6.696;2022-12-04T07:41:38;27.37;;;15.27;;
7316;SDS011;3699;51.462;6.696;2022-12-04T07:44:05;27.93;;;14.77;;
7316;SDS011;3699;51.462;6.696;2022-12-04T07:46:32;27.23;;;14.53;;
7316;SDS011;3699;51.462;6.696;2022-12-04T07:48:59;30.47;;;15.20;;
7316;SDS011;3699;51.462;6.696;2022-12-04T07:51:26;29.80;;;15.13;;
7316;SDS011;3699;51.462;6.696;2022-12-04T07:53:54;27.43;;;14.40;;
7316;SDS011;3699;51.462;6.696;2022-12-04T07:56:23;31.57;;;14.83;;
7316;SDS011;3699;51.462;6.696;2022-12-04T07:58:50;26.97;;;14.13;;
7316;SDS011;3699;51.462;6.696;2022-12-04T08:01:17;26.93;;;15.10;;
7316;SDS011;3699;51.462;6.696;2022-12-04T08:03:46;27.50;;;15.43;;
7316;SDS011;3699;51.462;6.696;2022-12-04T08:06:13;25.20;;;14.37;;
7316;SDS011;3699;51.462;6.696;2022-12-04T08:08:41;29.93;;;15.33;;
7316;SDS011;3699;51.462;6.696;2022-12-04T08:11:08;27.07;;;14.77;;
7316;SDS011;3699;51.462;6.696;2022-12-04T08:13:38;28.37;;;15.73;;
7316;SDS011;3699;51.462;6.696;2022-12-04T08:16:06;26.30;;;14.63;;
7316;SDS011;3699;51.462;6.696;2022-12-04T08:18:34;25.33;;;15.00;;
7316;SDS011;3699;51.462;6.696;2022-12-04T08:21:02;26.67;;;14.43;;
7316;SDS011;3699;51.462;6.696;2022-12-04T08:23:30;25.67;;;14.30;;
7316;SDS011;3699;51.462;6.696;2022-12-04T08:25:57;25.17;;;14.33;;
7316;SDS011;3699;51.462;6.696;2022-12-04T08:28:24;26.37;;;14.73;;
7316;SDS011;3699;51.462;6.696;2022-12-04T08:30:52;22.70;;;13.20;;
7316;SDS011;3699;51.462;6.696;2022-12-04T08:33:19;25.37;;;14.13;;
7316;SDS011;3699;51.462;6.696;2022-12-04T08:35:46;25.10;;;13.47;;
7316;SDS011;3699;51.462;6.696;2022-12-04T08:38:13;26.67;;;13.47;;
7316;SDS011;3699;51.462;6.696;2022-12-04T08:40:40;24.37;;;13.63;;
7316;SDS011;3699;51.462;6.696;2022-12-04T08:43:06;24.57;;;13.27;;
7316;SDS011;3699;51.462;6.696;2022-12-04T08:45:33;23.27;;;12.60;;
7316;SDS011;3699;51.462;6.696;2022-12-04T08:48:01;27.10;;;13.67;;
7316;SDS011;3699;51.462;6.696;2022-12-04T08:50:28;20.73;;;13.00;;
7316;SDS011;3699;51.462;6.696;2022-12-04T08:52:55;23.30;;;12.60;;
7316;SDS011;3699;51.462;6.696;2022-12-04T08:55:21;22.33;;;13.23;;
7316;SDS011;3699;51.462;6.696;2022-12-04T08:57:49;26.00;;;14.07;;
7316;SDS011;3699;51.462;6.696;2022-12-04T09:00:16;24.63;;;13.60;;
7316;SDS011;3699;51.462;6.696;2022-12-04T09:02:43;25.20;;;13.27;;
7316;SDS011;3699;51.462;6.696;2022-12-04T09:05:14;24.13;;;13.07;;
7316;SDS011;3699;51.462;6.696;2022-12-04T09:07:41;25.43;;;13.47;;
7316;SDS011;3699;51.462;6.696;2022-12-04T09:10:08;22.20;;;13.10;;
7316;SDS011;3699;51.462;6.696;2022-12-04T09:12:36;23.13;;;13.37;;
7316;SDS011;3699;51.462;6.696;2022-12-04T09:15:03;23.77;;;13.30;;
7316;SDS011;3699;51.462;6.696;2022-12-04T09:17:30;24.67;;;12.70;;
7316;SDS011;3699;51.462;6.696;2022-12-04T09:19:57;28.93;;;13.90;;
7316;SDS011;3699;51.462;6.696;2022-12-04T09:22:25;24.77;;;13.77;;
7316;SDS011;3699;51.462;6.696;2022-12-04T09:24:51;23.10;;;13.13;;
7316;SDS011;3699;51.462;6.696;2022-12-04T09:27:18;28.70;;;14.17;;
7316;SDS011;3699;51.462;6.696;2022-12-04T09:29:45;25.27;;;14.13;;
7316;SDS011;3699;51.462;6.696;2022-12-04T09:32:12;26.03;;;13.50;;
7316;SDS011;3699;51.462;6.696;2022-12-04T09:34:38;23.63;;;13.43;;
7316;SDS011;3699;51.462;6.696;2022-12-04T09:37:05;25.80;;;14.13;;
7316;SDS011;3699;51.462;6.696;2022-12-04T09:39:33;28.60;;;15.20;;
7316;SDS011;3699;51.462;6.696;2022-12-04T09:42:12;27.47;;;14.90;;
7316;SDS011;3699;51.462;6.696;2022-12-04T09:44:56;24.93;;;13.70;;
7316;SDS011;3699;51.462;6.696;2022-12-04T09:47:28;27.13;;;14.80;;
7316;SDS011;3699;51.462;6.696;2022-12-04T09:49:59;29.83;;;14.90;;
7316;SDS011;3699;51.462;6.696;2022-12-04T09:52:35;29.53;;;15.93;;
7316;SDS011;3699;51.462;6.696;2022-12-04T09:55:13;25.47;;;15.60;;
7316;SDS011;3699;51.462;6.696;2022-12-04T09:57:45;31.00;;;15.20;;
7316;SDS011;3699;51.462;6.696;2022-12-04T10:00:16;28.30;;;15.53;;
7316;SDS011;3699;51.462;6.696;2022-12-04T10:02:46;26.70;;;15.37;;
7316;SDS011;3699;51.462;6.696;2022-12-04T10:05:16;29.13;;;16.50;;
7316;SDS011;3699;51.462;6.696;2022-12-04T10:07:47;31.03;;;15.73;;
7316;SDS011;3699;51.462;6.696;2022-12-04T10:10:25;27.63;;;15.47;;
7316;SDS011;3699;51.462;6.696;2022-12-04T10:13:02;28.00;;;15.13;;
7316;SDS011;3699;51.462;6.696;2022-12-04T10:15:41;27.40;;;15.77;;
7316;SDS011;3699;51.462;6.696;2022-12-04T10:18:19;26.30;;;15.47;;
7316;SDS011;3699;51.462;6.696;2022-12-04T10:21:01;33.40;;;16.63;;
7316;SDS011;3699;51.462;6.696;2022-12-04T10:23:42;28.60;;;15.13;;
7316;SDS011;3699;51.462;6.696;2022-12-04T10:26:17;27.63;;;14.33;;
7316;SDS011;3699;51.462;6.696;2022-12-04T10:28:46;24.73;;;13.93;;
7316;SDS011;3699;51.462;6.696;2022-12-04T10:31:17;28.47;;;15.80;;
7316;SDS011;3699;51.462;6.696;2022-12-04T10:33:45;29.00;;;15.43;;
7316;SDS011;3699;51.462;6.696;2022-12-04T10:36:17;25.63;;;15.13;;
7316;SDS011;3699;51.462;6.696;2022-12-04T10:38:48;24.30;;;12.87;;
7316;SDS011;3699;51.462;6.696;2022-12-04T10:41:23;28.93;;;15.17;;
7316;SDS011;3699;51.462;6.696;2022-12-04T10:43:54;26.07;;;14.47;;
7316;SDS011;3699;51.462;6.696;2022-12-04T10:46:21;25.03;;;14.63;;
7316;SDS011;3699;51.462;6.696;2022-12-04T10:48:50;25.50;;;14.23;;
7316;SDS011;3699;51.462;6.696;2022-12-04T10:51:20;27.17;;;14.80;;
7316;SDS011;3699;51.462;6.696;2022-12-04T10:53:48;27.40;;;14.77;;
7316;SDS011;3699;51.462;6.696;2022-12-04T10:56:16;33.37;;;16.17;;
7316;SDS011;3699;51.462;6.696;2022-12-04T10:58:54;27.07;;;15.07;;
7316;SDS011;3699;51.462;6.696;2022-12-04T11:01:23;30.20;;;14.60;;
7316;SDS011;3699;51.462;6.696;2022-12-04T11:03:54;30.20;;;15.93;;
7316;SDS011;3699;51.462;6.696;2022-12-04T11:06:24;28.83;;;14.87;;
7316;SDS011;3699;51.462;6.696;2022-12-04T11:08:53;27.13;;;15.03;;
7316;SDS011;3699;51.462;6.696;2022-12-04T11:11:22;26.37;;;15.03;;
7316;SDS011;3699;51.462;6.696;2022-12-04T11:14:00;27.30;;;14.07;;
7316;SDS011;3699;51.462;6.696;2022-12-04T11:16:33;31.43;;;16.03;;
7316;SDS011;3699;51.462;6.696;2022-12-04T11:19:02;27.17;;;14.57;;
7316;SDS011;3699;51.462;6.696;2022-12-04T11:21:43;24.73;;;13.87;;
7316;SDS011;3699;51.462;6.696;2022-12-04T11:24:14;27.23;;;14.83;;
7316;SDS011;3699;51.462;6.696;2022-12-04T11:26:46;28.90;;;15.07;;
7316;SDS011;3699;51.462;6.696;2022-12-04T11:29:15;26.97;;;15.87;;
7316;SDS011;3699;51.462;6.696;2022-12-04T11:31:46;26.43;;;15.00;;
7316;SDS011;3699;51.462;6.696;2022-12-04T11:34:15;28.57;;;15.07;;
7316;SDS011;3699;51.462;6.696;2022-12-04T11:36:48;27.23;;;15.07;;
7316;SDS011;3699;51.462;6.696;2022-12-04T11:39:18;29.73;;;15.27;;
7316;SDS011;3699;51.462;6.696;2022-12-04T11:41:57;26.40;;;14.90;;
7316;SDS011;3699;51.462;6.696;2022-12-04T11:44:28;88.20;;;47.33;;
7316;SDS011;3699;51.462;6.696;2022-12-04T11:46:57;33.63;;;17.00;;
7316;SDS011;3699;51.462;6.696;2022-12-04T11:49:26;29.63;;;15.90;;
7316;SDS011;3699;51.462;6.696;2022-12-04T11:51:55;29.17;;;15.73;;
7316;SDS011;3699;51.462;6.696;2022-12-04T11:54:33;30.30;;;16.77;;
7316;SDS011;3699;51.462;6.696;2022-12-04T11:57:12;29.67;;;16.17;;
7316;SDS011;3699;51.462;6.696;2022-12-04T11:59:52;28.50;;;16.13;;
7316;SDS011;3699;51.462;6.696;2022-12-04T12:02:40;30.87;;;15.23;;
7316;SDS011;3699;51.462;6.696;2022-12-04T12:05:34;32.27;;;15.50;;
7316;SDS011;3699;51.462;6.696;2022-12-04T12:08:19;30.70;;;16.83;;
7316;SDS011;3699;51.462;6.696;2022-12-04T12:10:59;29.97;;;14.40;;
7316;SDS011;3699;51.462;6.696;2022-12-04T12:13:34;27.53;;;14.73;;
7316;SDS011;3699;51.462;6.696;2022-12-04T12:16:14;33.57;;;16.87;;
7316;SDS011;3699;51.462;6.696;2022-12-04T12:18:54;30.27;;;15.30;;
7316;SDS011;3699;51.462;6.696;2022-12-04T12:21:26;30.37;;;15.13;;
7316;SDS011;3699;51.462;6.696;2022-12-04T12:26:49;31.50;;;16.70;;
7316;SDS011;3699;51.462;6.696;2022-12-04T12:29:31;28.53;;;15.17;;
7316;SDS011;3699;51.462;6.696;2022-12-04T12:32:12;25.57;;;14.83;;
7316;SDS011;3699;51.462;6.696;2022-12-04T12:34:46;28.40;;;15.57;;
7316;SDS011;3699;51.462;6.696;2022-12-04T12:37:17;25.73;;;14.57;;
7316;SDS011;3699;51.462;6.696;2022-12-04T12:39:49;29.07;;;14.63;;
7316;SDS011;3699;51.462;6.696;2022-12-04T12:42:24;29.20;;;14.27;;
7316;SDS011;3699;51.462;6.696;2022-12-04T12:44:56;33.80;;;15.27;;
7316;SDS011;3699;51.462;6.696;2022-12-04T12:47:29;29.17;;;16.33;;
7316;SDS011;3699;51.462;6.696;2022-12-04T12:50:02;28.43;;;14.73;;
7316;SDS011;3699;51.462;6.696;2022-12-04T12:52:37;28.40;;;14.70;;
7316;SDS011;3699;51.462;6.696;2022-12-04T12:55:12;29.80;;;15.70;;
7316;SDS011;3699;51.462;6.696;2022-12-04T12:57:43;27.57;;;15.47;;
7316;SDS011;3699;51.462;6.696;2022-12-04T13:00:13;28.60;;;16.40;;
7316;SDS011;3699;51.462;6.696;2022-12-04T13:02:43;27.57;;;14.90;;
7316;SDS011;3699;51.462;6.696;2022-12-04T13:05:13;25.33;;;14.77;;
7316;SDS011;3699;51.462;6.696;2022-12-04T13:07:53;27.87;;;15.07;;
7316;SDS011;3699;51.462;6.696;2022-12-04T13:10:26;31.10;;;15.87;;
7316;SDS011;3699;51.462;6.696;2022-12-04T13:12:58;30.90;;;16.67;;
7316;SDS011;3699;51.462;6.696;2022-12-04T13:15:30;44.50;;;22.50;;
7316;SDS011;3699;51.462;6.696;2022-12-04T13:18:04;31.97;;;17.03;;
7316;SDS011;3699;51.462;6.696;2022-12-04T13:20:34;31.37;;;16.00;;
7316;SDS011;3699;51.462;6.696;2022-12-04T13:23:20;33.20;;;17.40;;
7316;SDS011;3699;51.462;6.696;2022-12-04T13:26:00;28.30;;;16.70;;
7316;SDS011;3699;51.462;6.696;2022-12-04T13:28:35;35.17;;;17.73;;
7316;SDS011;3699;51.462;6.696;2022-12-04T13:31:13;29.23;;;17.17;;
7316;SDS011;3699;51.462;6.696;2022-12-04T13:34:13;32.97;;;17.47;;
7316;SDS011;3699;51.462;6.696;2022-12-04T13:46:03;29.43;;;16.70;;
7316;SDS011;3699;51.462;6.696;2022-12-04T13:48:34;28.50;;;15.07;;
7316;SDS011;3699;51.462;6.696;2022-12-04T13:54:01;29.80;;;16.37;;
7316;SDS011;3699;51.462;6.696;2022-12-04T13:56:46;31.27;;;18.20;;
7316;SDS011;3699;51.462;6.696;2022-12-04T13:59:22;28.13;;;16.30;;
7316;SDS011;3699;51.462;6.696;2022-12-04T14:02:01;29.40;;;16.20;;
7316;SDS011;3699;51.462;6.696;2022-12-04T14:04:31;32.43;;;17.80;;
7316;SDS011;3699;51.462;6.696;2022-12-04T14:07:06;33.53;;;18.13;;
7316;SDS011;3699;51.462;6.696;2022-12-04T14:09:48;46.97;;;24.83;;
7316;SDS011;3699;51.462;6.696;2022-12-04T14:12:22;23.57;;;15.27;;
7316;SDS011;3699;51.462;6.696;2022-12-04T14:14:52;24.87;;;14.70;;
7316;SDS011;3699;51.462;6.696;2022-12-04T14:17:22;23.73;;;15.13;;
7316;SDS011;3699;51.462;6.696;2022-12-04T14:19:52;35.83;;;20.30;;
7316;SDS011;3699;51.462;6.696;2022-12-04T14:22:27;33.53;;;18.93;;
7316;SDS011;3699;51.462;6.696;2022-12-04T14:25:19;40.03;;;21.43;;
7316;SDS011;3699;51.462;6.696;2022-12-04T14:27:49;32.47;;;19.47;;
7316;SDS011;3699;51.462;6.696;2022-12-04T14:30:17;29.47;;;17.17;;
7316;SDS011;3699;51.462;6.696;2022-12-04T14:32:46;28.60;;;17.97;;
7316;SDS011;3699;51.462;6.696;2022-12-04T14:35:16;26.10;;;15.47;;
7316;SDS011;3699;51.462;6.696;2022-12-04T14:37:48;27.27;;;16.00;;
7316;SDS011;3699;51.462;6.696;2022-12-04T14:40:19;25.33;;;14.70;;
7316;SDS011;3699;51.462;6.696;2022-12-04T14:42:49;24.27;;;14.63;;
7316;SDS011;3699;51.462;6.696;2022-12-04T14:45:20;27.67;;;16.37;;
7316;SDS011;3699;51.462;6.696;2022-12-04T14:47:58;26.17;;;14.93;;
7316;SDS011;3699;51.462;6.696;2022-12-04T14:50:41;23.63;;;14.93;;
7316;SDS011;3699;51.462;6.696;2022-12-04T14:53:19;25.33;;;15.77;;
7316;SDS011;3699;51.462;6.696;2022-12-04T14:55:59;23.83;;;14.60;;
7316;SDS011;3699;51.462;6.696;2022-12-04T14:58:31;23.87;;;14.20;;
7316;SDS011;3699;51.462;6.696;2022-12-04T15:01:00;22.83;;;14.10;;
7316;SDS011;3699;51.462;6.696;2022-12-04T15:03:28;22.97;;;14.50;;
7316;SDS011;3699;51.462;6.696;2022-12-04T15:06:03;22.43;;;13.07;;
7316;SDS011;3699;51.462;6.696;2022-12-04T15:08:33;23.10;;;13.57;;
7316;SDS011;3699;51.462;6.696;2022-12-04T15:11:00;22.63;;;13.70;;
7316;SDS011;3699;51.462;6.696;2022-12-04T15:13:48;22.07;;;13.10;;
7316;SDS011;3699;51.462;6.696;2022-12-04T15:16:17;22.03;;;13.50;;
7316;SDS011;3699;51.462;6.696;2022-12-04T15:18:53;23.90;;;15.10;;
7316;SDS011;3699;51.462;6.696;2022-12-04T15:21:21;29.33;;;17.80;;
7316;SDS011;3699;51.462;6.696;2022-12-04T15:23:51;35.37;;;19.00;;
7316;SDS011;3699;51.462;6.696;2022-12-04T15:26:18;30.50;;;18.23;;
7316;SDS011;3699;51.462;6.696;2022-12-04T15:28:47;33.33;;;18.77;;
7316;SDS011;3699;51.462;6.696;2022-12-04T15:31:17;34.10;;;18.93;;